aviador You're here:

KMCX Decoded Metar

in
Report Time2018-04-26 00:35:00
UTC Time2018-04-26 00:23:34
Flight Rules vfr VFR
Wind360° at 08 kt
W.Decomp.*RWY 36: 8.0 kt HW 0 kt LCW
Visibility9999 m
Phenomena:N/A
Clouds:N/A
Expected CloudBase > 6,000 ft AGL from Temp-Dew spread
CeilingNone
Temp11°C
Dew Point-4°C (35% RH)
AAT5.6°C
QNH1016 hPa
Raw Report
KMCX 260035Z AUTO 36008KT 10SM CLR 11/M04 A3000 RMK AO2
T01051041=

Extra information for KMCX:More info

Social comments